sensor_id;sensor_type;location;lat;lon;timestamp;temperature;humidity
48579;DHT22;34357;51.948;6.132;2024-03-06T00:01:52;6.50;94.20
48579;DHT22;34357;51.948;6.132;2024-03-06T00:04:18;6.60;94.10
48579;DHT22;34357;51.948;6.132;2024-03-06T00:06:43;6.60;94.10
48579;DHT22;34357;51.948;6.132;2024-03-06T00:09:09;6.60;94.10
48579;DHT22;34357;51.948;6.132;2024-03-06T00:11:35;6.50;94.10
48579;DHT22;34357;51.948;6.132;2024-03-06T00:14:04;6.50;94.10
48579;DHT22;34357;51.948;6.132;2024-03-06T00:16:34;6.50;94.20
48579;DHT22;34357;51.948;6.132;2024-03-06T00:18:59;6.50;94.10
48579;DHT22;34357;51.948;6.132;2024-03-06T00:21:25;6.50;94.10
48579;DHT22;34357;51.948;6.132;2024-03-06T00:23:51;6.50;94.10
48579;DHT22;34357;51.948;6.132;2024-03-06T00:26:16;6.50;94.20
48579;DHT22;34357;51.948;6.132;2024-03-06T00:28:42;6.50;94.10
48579;DHT22;34357;51.948;6.132;2024-03-06T00:31:08;6.50;94.10
48579;DHT22;34357;51.948;6.132;2024-03-06T00:33:34;6.50;94.10
48579;DHT22;34357;51.948;6.132;2024-03-06T00:35:59;6.50;94.10
48579;DHT22;34357;51.948;6.132;2024-03-06T00:38:25;6.50;94.10
48579;DHT22;34357;51.948;6.132;2024-03-06T00:40:51;6.50;94.10
48579;DHT22;34357;51.948;6.132;2024-03-06T00:43:16;6.50;94.10
48579;DHT22;34357;51.948;6.132;2024-03-06T00:45:42;6.50;94.10
48579;DHT22;34357;51.948;6.132;2024-03-06T00:48:08;6.50;94.10
48579;DHT22;34357;51.948;6.132;2024-03-06T00:50:33;6.50;94.10
48579;DHT22;34357;51.948;6.132;2024-03-06T00:52:59;6.50;94.20
48579;DHT22;34357;51.948;6.132;2024-03-06T00:55:25;6.50;94.20
48579;DHT22;34357;51.948;6.132;2024-03-06T00:57:50;6.40;94.10
48579;DHT22;34357;51.948;6.132;2024-03-06T01:00:17;6.40;94.10
48579;DHT22;34357;51.948;6.132;2024-03-06T01:02:43;6.40;94.10
48579;DHT22;34357;51.948;6.132;2024-03-06T01:05:08;6.40;94.10
48579;DHT22;34357;51.948;6.132;2024-03-06T01:07:37;6.40;94.10
48579;DHT22;34357;51.948;6.132;2024-03-06T01:10:04;6.30;94.20
48579;DHT22;34357;51.948;6.132;2024-03-06T01:12:32;6.30;94.10
48579;DHT22;34357;51.948;6.132;2024-03-06T01:14:58;6.20;94.20
48579;DHT22;34357;51.948;6.132;2024-03-06T01:17:24;6.20;94.10
48579;DHT22;34357;51.948;6.132;2024-03-06T01:19:50;6.10;94.20
48579;DHT22;34357;51.948;6.132;2024-03-06T01:22:16;6.00;94.20
48579;DHT22;34357;51.948;6.132;2024-03-06T01:24:42;6.00;94.20
48579;DHT22;34357;51.948;6.132;2024-03-06T01:27:08;5.90;94.20
48579;DHT22;34357;51.948;6.132;2024-03-06T01:29:33;5.90;94.20
48579;DHT22;34357;51.948;6.132;2024-03-06T01:31:59;5.90;94.20
48579;DHT22;34357;51.948;6.132;2024-03-06T01:34:25;5.80;94.20
48579;DHT22;34357;51.948;6.132;2024-03-06T01:36:52;5.90;94.20
48579;DHT22;34357;51.948;6.132;2024-03-06T01:39:17;5.80;94.20
48579;DHT22;34357;51.948;6.132;2024-03-06T01:41:47;5.80;94.20
48579;DHT22;34357;51.948;6.132;2024-03-06T01:44:17;5.70;94.20
48579;DHT22;34357;51.948;6.132;2024-03-06T01:46:46;5.70;94.20
48579;DHT22;34357;51.948;6.132;2024-03-06T01:49:13;5.70;94.20
48579;DHT22;34357;51.948;6.132;2024-03-06T01:51:42;5.60;94.30
48579;DHT22;34357;51.948;6.132;2024-03-06T01:54:08;5.60;94.40
48579;DHT22;34357;51.948;6.132;2024-03-06T01:56:35;5.60;94.30
48579;DHT22;34357;51.948;6.132;2024-03-06T01:59:03;5.60;94.30
48579;DHT22;34357;51.948;6.132;2024-03-06T02:01:31;5.50;94.30
48579;DHT22;34357;51.948;6.132;2024-03-06T02:03:57;5.40;94.40
48579;DHT22;34357;51.948;6.132;2024-03-06T02:06:23;5.40;94.30
48579;DHT22;34357;51.948;6.132;2024-03-06T02:08:50;5.30;94.30
48579;DHT22;34357;51.948;6.132;2024-03-06T02:11:16;5.30;94.30
48579;DHT22;34357;51.948;6.132;2024-03-06T02:13:43;5.20;94.30
48579;DHT22;34357;51.948;6.132;2024-03-06T02:16:12;5.10;94.30
48579;DHT22;34357;51.948;6.132;2024-03-06T02:18:49;5.00;94.30
48579;DHT22;34357;51.948;6.132;2024-03-06T02:21:16;5.00;94.30
48579;DHT22;34357;51.948;6.132;2024-03-06T02:23:42;4.90;94.30
48579;DHT22;34357;51.948;6.132;2024-03-06T02:26:07;4.90;94.30
48579;DHT22;34357;51.948;6.132;2024-03-06T02:28:33;4.90;94.30
48579;DHT22;34357;51.948;6.132;2024-03-06T02:31:00;4.90;94.30
48579;DHT22;34357;51.948;6.132;2024-03-06T02:33:27;4.90;94.40
48579;DHT22;34357;51.948;6.132;2024-03-06T02:35:53;4.80;94.40
48579;DHT22;34357;51.948;6.132;2024-03-06T02:38:18;4.70;94.30
48579;DHT22;34357;51.948;6.132;2024-03-06T02:40:44;4.70;94.30
48579;DHT22;34357;51.948;6.132;2024-03-06T02:43:10;4.60;94.40
48579;DHT22;34357;51.948;6.132;2024-03-06T02:45:36;4.60;94.40
48579;DHT22;34357;51.948;6.132;2024-03-06T02:48:02;4.60;94.40
48579;DHT22;34357;51.948;6.132;2024-03-06T02:50:27;4.50;94.40
48579;DHT22;34357;51.948;6.132;2024-03-06T02:52:53;4.50;94.40
48579;DHT22;34357;51.948;6.132;2024-03-06T02:55:19;4.50;94.40
48579;DHT22;34357;51.948;6.132;2024-03-06T02:57:45;4.50;94.40
48579;DHT22;34357;51.948;6.132;2024-03-06T03:00:11;4.50;94.40
48579;DHT22;34357;51.948;6.132;2024-03-06T03:02:39;4.50;94.40
48579;DHT22;34357;51.948;6.132;2024-03-06T03:05:06;4.40;94.50
48579;DHT22;34357;51.948;6.132;2024-03-06T03:07:31;4.40;94.50
48579;DHT22;34357;51.948;6.132;2024-03-06T03:09:57;4.30;94.50
48579;DHT22;34357;51.948;6.132;2024-03-06T03:12:23;4.20;94.50
48579;DHT22;34357;51.948;6.132;2024-03-06T03:14:48;4.10;94.50
48579;DHT22;34357;51.948;6.132;2024-03-06T03:17:14;4.10;94.50
48579;DHT22;34357;51.948;6.132;2024-03-06T03:19:40;4.00;94.50
48579;DHT22;34357;51.948;6.132;2024-03-06T03:22:06;4.00;94.50
48579;DHT22;34357;51.948;6.132;2024-03-06T03:24:33;4.00;94.60
48579;DHT22;34357;51.948;6.132;2024-03-06T03:26:59;3.90;94.50
48579;DHT22;34357;51.948;6.132;2024-03-06T03:29:25;3.90;94.60
48579;DHT22;34357;51.948;6.132;2024-03-06T03:31:50;3.90;94.60
48579;DHT22;34357;51.948;6.132;2024-03-06T03:34:16;3.90;94.60
48579;DHT22;34357;51.948;6.132;2024-03-06T03:36:42;3.90;94.60
48579;DHT22;34357;51.948;6.132;2024-03-06T03:39:10;3.90;94.70
48579;DHT22;34357;51.948;6.132;2024-03-06T03:41:45;3.80;94.70
48579;DHT22;34357;51.948;6.132;2024-03-06T03:44:15;3.80;94.80
48579;DHT22;34357;51.948;6.132;2024-03-06T03:46:41;3.80;94.80
48579;DHT22;34357;51.948;6.132;2024-03-06T03:49:07;3.80;94.80
48579;DHT22;34357;51.948;6.132;2024-03-06T03:51:35;3.80;94.80
48579;DHT22;34357;51.948;6.132;2024-03-06T03:54:01;3.70;94.80
48579;DHT22;34357;51.948;6.132;2024-03-06T03:56:27;3.70;94.80
48579;DHT22;34357;51.948;6.132;2024-03-06T03:58:53;3.60;94.90
48579;DHT22;34357;51.948;6.132;2024-03-06T04:01:19;3.60;94.80
48579;DHT22;34357;51.948;6.132;2024-03-06T04:03:45;3.50;94.90
48579;DHT22;34357;51.948;6.132;2024-03-06T04:06:11;3.50;94.90
48579;DHT22;34357;51.948;6.132;2024-03-06T04:08:36;3.50;94.90
48579;DHT22;34357;51.948;6.132;2024-03-06T04:11:04;3.50;94.90
48579;DHT22;34357;51.948;6.132;2024-03-06T04:13:29;3.50;94.90
48579;DHT22;34357;51.948;6.132;2024-03-06T04:15:55;3.40;94.90
48579;DHT22;34357;51.948;6.132;2024-03-06T04:18:21;3.40;94.90
48579;DHT22;34357;51.948;6.132;2024-03-06T04:20:47;3.40;94.80
48579;DHT22;34357;51.948;6.132;2024-03-06T04:23:13;3.30;94.90
48579;DHT22;34357;51.948;6.132;2024-03-06T04:25:38;3.30;94.90
48579;DHT22;34357;51.948;6.132;2024-03-06T04:28:05;3.40;95.00
48579;DHT22;34357;51.948;6.132;2024-03-06T04:30:33;3.40;95.00
48579;DHT22;34357;51.948;6.132;2024-03-06T04:32:59;3.40;95.00
48579;DHT22;34357;51.948;6.132;2024-03-06T04:35:25;3.40;95.10
48579;DHT22;34357;51.948;6.132;2024-03-06T04:37:50;3.40;95.00
48579;DHT22;34357;51.948;6.132;2024-03-06T04:40:16;3.40;95.00
48579;DHT22;34357;51.948;6.132;2024-03-06T04:42:46;3.30;94.90
48579;DHT22;34357;51.948;6.132;2024-03-06T04:45:15;3.30;95.00
48579;DHT22;34357;51.948;6.132;2024-03-06T04:47:41;3.40;95.10
48579;DHT22;34357;51.948;6.132;2024-03-06T04:50:11;3.40;95.10
48579;DHT22;34357;51.948;6.132;2024-03-06T04:52:38;3.30;95.10
48579;DHT22;34357;51.948;6.132;2024-03-06T04:55:04;3.20;95.10
48579;DHT22;34357;51.948;6.132;2024-03-06T04:57:30;3.30;95.20
48579;DHT22;34357;51.948;6.132;2024-03-06T04:59:56;3.20;95.10
48579;DHT22;34357;51.948;6.132;2024-03-06T05:02:24;3.20;95.10
48579;DHT22;34357;51.948;6.132;2024-03-06T05:04:51;3.10;95.00
48579;DHT22;34357;51.948;6.132;2024-03-06T05:07:17;3.10;95.00
48579;DHT22;34357;51.948;6.132;2024-03-06T05:09:43;3.00;95.10
48579;DHT22;34357;51.948;6.132;2024-03-06T05:12:08;3.00;95.10
48579;DHT22;34357;51.948;6.132;2024-03-06T05:14:34;2.90;95.10
48579;DHT22;34357;51.948;6.132;2024-03-06T05:17:00;2.90;95.20
48579;DHT22;34357;51.948;6.132;2024-03-06T05:19:26;3.00;95.20
48579;DHT22;34357;51.948;6.132;2024-03-06T05:22:00;2.90;95.10
48579;DHT22;34357;51.948;6.132;2024-03-06T05:24:26;3.00;95.20
48579;DHT22;34357;51.948;6.132;2024-03-06T05:26:52;3.00;95.20
48579;DHT22;34357;51.948;6.132;2024-03-06T05:29:17;3.00;95.20
48579;DHT22;34357;51.948;6.132;2024-03-06T05:31:43;3.00;95.20
48579;DHT22;34357;51.948;6.132;2024-03-06T05:34:09;3.00;95.20
48579;DHT22;34357;51.948;6.132;2024-03-06T05:36:34;3.00;95.20
48579;DHT22;34357;51.948;6.132;2024-03-06T05:39:00;3.10;95.20
48579;DHT22;34357;51.948;6.132;2024-03-06T05:41:26;3.00;95.20
48579;DHT22;34357;51.948;6.132;2024-03-06T05:43:52;3.10;95.20
48579;DHT22;34357;51.948;6.132;2024-03-06T05:46:17;3.00;95.20
48579;DHT22;34357;51.948;6.132;2024-03-06T05:48:45;3.00;95.20
48579;DHT22;34357;51.948;6.132;2024-03-06T05:51:10;3.00;95.20
48579;DHT22;34357;51.948;6.132;2024-03-06T05:53:39;3.00;95.20
48579;DHT22;34357;51.948;6.132;2024-03-06T05:56:08;3.00;95.30
48579;DHT22;34357;51.948;6.132;2024-03-06T05:58:33;3.00;95.30
48579;DHT22;34357;51.948;6.132;2024-03-06T06:01:02;2.90;95.20
48579;DHT22;34357;51.948;6.132;2024-03-06T06:03:29;2.90;95.20
48579;DHT22;34357;51.948;6.132;2024-03-06T06:05:56;2.90;95.20
48579;DHT22;34357;51.948;6.132;2024-03-06T06:08:22;2.90;95.30
48579;DHT22;34357;51.948;6.132;2024-03-06T06:10:48;2.90;95.30
48579;DHT22;34357;51.948;6.132;2024-03-06T06:13:17;2.90;95.30
48579;DHT22;34357;51.948;6.132;2024-03-06T06:15:43;2.90;95.30
48579;DHT22;34357;51.948;6.132;2024-03-06T06:18:08;2.90;95.20
48579;DHT22;34357;51.948;6.132;2024-03-06T06:20:34;2.90;95.20
48579;DHT22;34357;51.948;6.132;2024-03-06T06:23:01;2.90;95.20
48579;DHT22;34357;51.948;6.132;2024-03-06T06:25:26;2.90;95.30
48579;DHT22;34357;51.948;6.132;2024-03-06T06:27:52;2.90;95.20
48579;DHT22;34357;51.948;6.132;2024-03-06T06:30:18;2.90;95.20
48579;DHT22;34357;51.948;6.132;2024-03-06T06:32:44;2.90;95.10
48579;DHT22;34357;51.948;6.132;2024-03-06T06:35:10;2.90;95.20
48579;DHT22;34357;51.948;6.132;2024-03-06T06:37:39;2.90;95.20
48579;DHT22;34357;51.948;6.132;2024-03-06T06:40:07;2.90;95.20
48579;DHT22;34357;51.948;6.132;2024-03-06T06:42:36;2.90;95.10
48579;DHT22;34357;51.948;6.132;2024-03-06T06:45:02;2.90;95.10
48579;DHT22;34357;51.948;6.132;2024-03-06T06:47:28;3.00;95.10
48579;DHT22;34357;51.948;6.132;2024-03-06T06:49:54;3.00;95.10
48579;DHT22;34357;51.948;6.132;2024-03-06T06:52:20;3.10;95.10
48579;DHT22;34357;51.948;6.132;2024-03-06T06:54:46;3.10;95.10
48579;DHT22;34357;51.948;6.132;2024-03-06T06:57:12;3.00;95.00
48579;DHT22;34357;51.948;6.132;2024-03-06T06:59:37;3.10;95.00
48579;DHT22;34357;51.948;6.132;2024-03-06T07:02:03;3.00;94.90
48579;DHT22;34357;51.948;6.132;2024-03-06T07:04:29;3.00;94.90
48579;DHT22;34357;51.948;6.132;2024-03-06T07:06:55;3.10;94.90
48579;DHT22;34357;51.948;6.132;2024-03-06T07:09:20;3.20;95.10
48579;DHT22;34357;51.948;6.132;2024-03-06T07:11:46;3.20;95.00
48579;DHT22;34357;51.948;6.132;2024-03-06T07:14:12;3.40;95.00
48579;DHT22;34357;51.948;6.132;2024-03-06T07:16:42;3.50;95.00
48579;DHT22;34357;51.948;6.132;2024-03-06T07:19:08;3.50;94.90
48579;DHT22;34357;51.948;6.132;2024-03-06T07:21:34;3.60;94.80
48579;DHT22;34357;51.948;6.132;2024-03-06T07:24:00;3.60;94.90
48579;DHT22;34357;51.948;6.132;2024-03-06T07:26:25;3.70;94.80
48579;DHT22;34357;51.948;6.132;2024-03-06T07:28:51;3.80;94.80
48579;DHT22;34357;51.948;6.132;2024-03-06T07:31:18;3.90;94.70
48579;DHT22;34357;51.948;6.132;2024-03-06T07:33:44;3.90;94.70
48579;DHT22;34357;51.948;6.132;2024-03-06T07:36:10;3.90;94.60
48579;DHT22;34357;51.948;6.132;2024-03-06T07:38:35;3.80;94.30
48579;DHT22;34357;51.948;6.132;2024-03-06T07:41:01;3.70;94.60
48579;DHT22;34357;51.948;6.132;2024-03-06T07:43:27;3.90;94.60
48579;DHT22;34357;51.948;6.132;2024-03-06T07:45:52;3.90;94.50
48579;DHT22;34357;51.948;6.132;2024-03-06T07:48:19;4.10;94.70
48579;DHT22;34357;51.948;6.132;2024-03-06T07:50:45;4.10;94.50
48579;DHT22;34357;51.948;6.132;2024-03-06T07:53:10;4.10;94.50
48579;DHT22;34357;51.948;6.132;2024-03-06T07:55:36;4.10;94.40
48579;DHT22;34357;51.948;6.132;2024-03-06T07:58:04;4.30;94.40
48579;DHT22;34357;51.948;6.132;2024-03-06T08:00:30;4.40;94.40
48579;DHT22;34357;51.948;6.132;2024-03-06T08:02:57;4.40;94.30
48579;DHT22;34357;51.948;6.132;2024-03-06T08:05:22;4.60;94.40
48579;DHT22;34357;51.948;6.132;2024-03-06T08:07:48;4.80;94.30
48579;DHT22;34357;51.948;6.132;2024-03-06T08:10:14;5.00;94.30
48579;DHT22;34357;51.948;6.132;2024-03-06T08:12:43;5.00;94.10
48579;DHT22;34357;51.948;6.132;2024-03-06T08:15:14;5.20;94.10
48579;DHT22;34357;51.948;6.132;2024-03-06T08:17:43;5.30;93.90
48579;DHT22;34357;51.948;6.132;2024-03-06T08:20:09;5.50;93.90
48579;DHT22;34357;51.948;6.132;2024-03-06T08:22:38;5.60;93.70
48579;DHT22;34357;51.948;6.132;2024-03-06T08:25:11;5.70;93.50
48579;DHT22;34357;51.948;6.132;2024-03-06T08:27:40;5.80;93.40
48579;DHT22;34357;51.948;6.132;2024-03-06T08:30:07;6.00;93.50
48579;DHT22;34357;51.948;6.132;2024-03-06T08:32:34;6.30;93.20
48579;DHT22;34357;51.948;6.132;2024-03-06T08:35:09;6.10;92.60
48579;DHT22;34357;51.948;6.132;2024-03-06T08:37:39;6.10;92.40
48579;DHT22;34357;51.948;6.132;2024-03-06T08:40:08;6.00;92.50
48579;DHT22;34357;51.948;6.132;2024-03-06T08:42:41;6.10;92.60
48579;DHT22;34357;51.948;6.132;2024-03-06T08:45:08;6.20;92.70
48579;DHT22;34357;51.948;6.132;2024-03-06T08:47:34;6.30;92.90
48579;DHT22;34357;51.948;6.132;2024-03-06T08:50:00;6.30;92.70
48579;DHT22;34357;51.948;6.132;2024-03-06T08:52:28;6.30;92.90
48579;DHT22;34357;51.948;6.132;2024-03-06T08:54:54;6.40;92.90
48579;DHT22;34357;51.948;6.132;2024-03-06T08:57:19;6.40;93.00
48579;DHT22;34357;51.948;6.132;2024-03-06T08:59:49;6.40;92.90
48579;DHT22;34357;51.948;6.132;2024-03-06T09:02:18;6.40;93.10
48579;DHT22;34357;51.948;6.132;2024-03-06T09:04:47;6.40;93.00
48579;DHT22;34357;51.948;6.132;2024-03-06T09:07:14;6.40;93.10
48579;DHT22;34357;51.948;6.132;2024-03-06T09:09:40;6.50;93.10
48579;DHT22;34357;51.948;6.132;2024-03-06T09:12:08;6.40;93.10
48579;DHT22;34357;51.948;6.132;2024-03-06T09:14:36;6.60;93.30
48579;DHT22;34357;51.948;6.132;2024-03-06T09:17:03;6.70;93.40
48579;DHT22;34357;51.948;6.132;2024-03-06T09:19:30;6.60;93.40
48579;DHT22;34357;51.948;6.132;2024-03-06T09:21:55;6.60;93.50
48579;DHT22;34357;51.948;6.132;2024-03-06T09:24:22;6.70;93.50
48579;DHT22;34357;51.948;6.132;2024-03-06T09:26:54;6.60;93.40
48579;DHT22;34357;51.948;6.132;2024-03-06T09:29:20;6.80;93.50
48579;DHT22;34357;51.948;6.132;2024-03-06T09:31:46;6.90;93.60
48579;DHT22;34357;51.948;6.132;2024-03-06T09:34:15;6.90;93.40
48579;DHT22;34357;51.948;6.132;2024-03-06T09:36:48;6.90;93.30
48579;DHT22;34357;51.948;6.132;2024-03-06T09:39:15;7.00;93.40
48579;DHT22;34357;51.948;6.132;2024-03-06T09:41:50;7.10;93.40
48579;DHT22;34357;51.948;6.132;2024-03-06T09:44:17;7.00;93.20
48579;DHT22;34357;51.948;6.132;2024-03-06T09:46:44;7.20;93.30
48579;DHT22;34357;51.948;6.132;2024-03-06T09:49:15;7.20;93.10
48579;DHT22;34357;51.948;6.132;2024-03-06T09:51:48;7.10;93.00
48579;DHT22;34357;51.948;6.132;2024-03-06T09:54:19;7.30;93.10
48579;DHT22;34357;51.948;6.132;2024-03-06T09:56:48;7.40;92.90
48579;DHT22;34357;51.948;6.132;2024-03-06T09:59:14;7.40;92.80
48579;DHT22;34357;51.948;6.132;2024-03-06T10:02:00;7.50;92.70
48579;DHT22;34357;51.948;6.132;2024-03-06T10:04:33;7.60;92.60
48579;DHT22;34357;51.948;6.132;2024-03-06T10:07:00;7.60;92.30
48579;DHT22;34357;51.948;6.132;2024-03-06T10:09:28;7.60;92.10
48579;DHT22;34357;51.948;6.132;2024-03-06T10:11:55;7.50;91.90
48579;DHT22;34357;51.948;6.132;2024-03-06T10:14:23;7.50;91.90
48579;DHT22;34357;51.948;6.132;2024-03-06T10:16:56;7.70;91.80
48579;DHT22;34357;51.948;6.132;2024-03-06T10:19:23;7.90;91.90
48579;DHT22;34357;51.948;6.132;2024-03-06T10:21:50;8.10;91.90
48579;DHT22;34357;51.948;6.132;2024-03-06T10:24:35;8.10;91.40
48579;DHT22;34357;51.948;6.132;2024-03-06T10:27:01;8.30;90.90
48579;DHT22;34357;51.948;6.132;2024-03-06T10:29:28;8.30;90.60
48579;DHT22;34357;51.948;6.132;2024-03-06T10:31:56;8.50;90.10
48579;DHT22;34357;51.948;6.132;2024-03-06T10:34:24;8.60;90.10
48579;DHT22;34357;51.948;6.132;2024-03-06T10:36:55;8.50;89.60
48579;DHT22;34357;51.948;6.132;2024-03-06T10:39:22;8.40;89.60
48579;DHT22;34357;51.948;6.132;2024-03-06T10:41:55;8.60;89.50
48579;DHT22;34357;51.948;6.132;2024-03-06T10:44:26;8.70;88.90
48579;DHT22;34357;51.948;6.132;2024-03-06T10:47:02;8.70;88.30
48579;DHT22;34357;51.948;6.132;2024-03-06T10:49:29;8.60;88.30
48579;DHT22;34357;51.948;6.132;2024-03-06T10:52:00;8.60;88.80
48579;DHT22;34357;51.948;6.132;2024-03-06T10:54:30;8.50;88.70
48579;DHT22;34357;51.948;6.132;2024-03-06T10:56:56;8.40;89.20
48579;DHT22;34357;51.948;6.132;2024-03-06T10:59:26;8.30;89.00
48579;DHT22;34357;51.948;6.132;2024-03-06T11:01:54;8.20;88.90
48579;DHT22;34357;51.948;6.132;2024-03-06T11:04:28;8.20;89.40
48579;DHT22;34357;51.948;6.132;2024-03-06T11:06:57;8.30;89.80
48579;DHT22;34357;51.948;6.132;2024-03-06T11:09:31;8.50;89.90
48579;DHT22;34357;51.948;6.132;2024-03-06T11:11:58;8.50;89.30
48579;DHT22;34357;51.948;6.132;2024-03-06T11:14:24;8.60;89.50
48579;DHT22;34357;51.948;6.132;2024-03-06T11:17:06;8.50;89.40
48579;DHT22;34357;51.948;6.132;2024-03-06T11:28:22;8.60;89.20
48579;DHT22;34357;51.948;6.132;2024-03-06T11:31:09;8.70;89.20
48579;DHT22;34357;51.948;6.132;2024-03-06T11:33:52;8.70;88.90
48579;DHT22;34357;51.948;6.132;2024-03-06T11:36:19;8.80;89.00
48579;DHT22;34357;51.948;6.132;2024-03-06T11:41:32;9.50;88.60
48579;DHT22;34357;51.948;6.132;2024-03-06T11:44:00;9.50;88.20
48579;DHT22;34357;51.948;6.132;2024-03-06T11:46:45;9.10;87.60
48579;DHT22;34357;51.948;6.132;2024-03-06T11:49:31;8.90;87.90
48579;DHT22;34357;51.948;6.132;2024-03-06T11:52:07;8.90;88.30
48579;DHT22;34357;51.948;6.132;2024-03-06T11:54:34;8.90;88.70
48579;DHT22;34357;51.948;6.132;2024-03-06T11:57:04;9.20;89.10
48579;DHT22;34357;51.948;6.132;2024-03-06T11:59:32;9.30;88.20
48579;DHT22;34357;51.948;6.132;2024-03-06T12:01:59;9.20;87.90
48579;DHT22;34357;51.948;6.132;2024-03-06T12:04:30;9.40;87.90
48579;DHT22;34357;51.948;6.132;2024-03-06T12:07:00;9.20;87.80
48579;DHT22;34357;51.948;6.132;2024-03-06T12:09:26;9.30;88.00
48579;DHT22;34357;51.948;6.132;2024-03-06T12:11:52;9.30;87.90
48579;DHT22;34357;51.948;6.132;2024-03-06T12:14:19;9.40;88.10
48579;DHT22;34357;51.948;6.132;2024-03-06T12:16:58;9.50;88.00
48579;DHT22;34357;51.948;6.132;2024-03-06T12:19:28;9.40;87.40
48579;DHT22;34357;51.948;6.132;2024-03-06T12:21:55;9.40;87.60
48579;DHT22;34357;51.948;6.132;2024-03-06T12:24:21;9.40;87.10
48579;DHT22;34357;51.948;6.132;2024-03-06T12:26:59;9.20;87.80
48579;DHT22;34357;51.948;6.132;2024-03-06T12:29:28;9.50;88.20
48579;DHT22;34357;51.948;6.132;2024-03-06T12:31:55;9.70;87.70
48579;DHT22;34357;51.948;6.132;2024-03-06T12:34:22;9.90;86.90
48579;DHT22;34357;51.948;6.132;2024-03-06T12:36:48;10.10;87.10
48579;DHT22;34357;51.948;6.132;2024-03-06T12:39:15;10.00;86.10
48579;DHT22;34357;51.948;6.132;2024-03-06T12:41:43;10.10;86.00
48579;DHT22;34357;51.948;6.132;2024-03-06T12:44:09;10.20;85.80
48579;DHT22;34357;51.948;6.132;2024-03-06T12:46:35;10.20;85.60
48579;DHT22;34357;51.948;6.132;2024-03-06T12:49:01;10.50;86.20
48579;DHT22;34357;51.948;6.132;2024-03-06T12:51:27;10.60;85.90
48579;DHT22;34357;51.948;6.132;2024-03-06T12:53:53;10.60;85.30
48579;DHT22;34357;51.948;6.132;2024-03-06T12:56:19;10.70;85.80
48579;DHT22;34357;51.948;6.132;2024-03-06T12:58:45;10.70;84.80
48579;DHT22;34357;51.948;6.132;2024-03-06T13:01:11;10.70;84.40
48579;DHT22;34357;51.948;6.132;2024-03-06T13:03:37;10.80;84.40
48579;DHT22;34357;51.948;6.132;2024-03-06T13:06:04;10.90;84.10
48579;DHT22;34357;51.948;6.132;2024-03-06T13:08:33;10.90;83.00
48579;DHT22;34357;51.948;6.132;2024-03-06T13:10:59;11.10;83.20
48579;DHT22;34357;51.948;6.132;2024-03-06T13:13:25;11.10;81.80
48579;DHT22;34357;51.948;6.132;2024-03-06T13:15:51;11.20;81.70
48579;DHT22;34357;51.948;6.132;2024-03-06T13:18:17;11.10;81.10
48579;DHT22;34357;51.948;6.132;2024-03-06T13:20:43;11.00;81.40
48579;DHT22;34357;51.948;6.132;2024-03-06T13:23:10;10.90;81.30
48579;DHT22;34357;51.948;6.132;2024-03-06T13:25:36;10.80;81.40
48579;DHT22;34357;51.948;6.132;2024-03-06T13:28:02;10.70;81.00
48579;DHT22;34357;51.948;6.132;2024-03-06T13:30:28;10.60;80.60
48579;DHT22;34357;51.948;6.132;2024-03-06T13:32:54;10.70;80.70
48579;DHT22;34357;51.948;6.132;2024-03-06T13:35:20;10.80;80.70
48579;DHT22;34357;51.948;6.132;2024-03-06T13:37:46;10.70;80.00
48579;DHT22;34357;51.948;6.132;2024-03-06T13:40:13;10.50;79.30
48579;DHT22;34357;51.948;6.132;2024-03-06T13:42:39;10.40;77.70
48579;DHT22;34357;51.948;6.132;2024-03-06T13:45:06;10.30;78.60
48579;DHT22;34357;51.948;6.132;2024-03-06T13:47:39;10.30;77.70
48579;DHT22;34357;51.948;6.132;2024-03-06T13:50:07;10.30;77.30
48579;DHT22;34357;51.948;6.132;2024-03-06T13:52:34;10.40;77.00
48579;DHT22;34357;51.948;6.132;2024-03-06T13:54:59;10.40;77.10
48579;DHT22;34357;51.948;6.132;2024-03-06T13:57:28;10.60;77.60
48579;DHT22;34357;51.948;6.132;2024-03-06T13:59:54;10.90;76.70
48579;DHT22;34357;51.948;6.132;2024-03-06T14:02:20;11.00;75.30
48579;DHT22;34357;51.948;6.132;2024-03-06T14:04:46;11.10;75.40
48579;DHT22;34357;51.948;6.132;2024-03-06T14:07:12;11.30;74.80
48579;DHT22;34357;51.948;6.132;2024-03-06T14:09:38;11.30;74.20
48579;DHT22;34357;51.948;6.132;2024-03-06T14:12:04;11.50;73.60
48579;DHT22;34357;51.948;6.132;2024-03-06T14:14:30;11.40;73.90
48579;DHT22;34357;51.948;6.132;2024-03-06T14:16:56;11.40;74.70
48579;DHT22;34357;51.948;6.132;2024-03-06T14:19:21;11.40;72.80
48579;DHT22;34357;51.948;6.132;2024-03-06T14:21:47;11.40;73.30
48579;DHT22;34357;51.948;6.132;2024-03-06T14:24:13;11.60;72.50
48579;DHT22;34357;51.948;6.132;2024-03-06T14:26:39;11.80;72.80
48579;DHT22;34357;51.948;6.132;2024-03-06T14:29:06;11.80;73.40
48579;DHT22;34357;51.948;6.132;2024-03-06T14:31:33;11.90;73.40
48579;DHT22;34357;51.948;6.132;2024-03-06T14:33:59;11.90;74.00
48579;DHT22;34357;51.948;6.132;2024-03-06T14:36:25;11.80;74.40
48579;DHT22;34357;51.948;6.132;2024-03-06T14:38:52;11.50;74.60
48579;DHT22;34357;51.948;6.132;2024-03-06T14:41:20;11.40;75.60
48579;DHT22;34357;51.948;6.132;2024-03-06T14:43:46;11.30;75.50
48579;DHT22;34357;51.948;6.132;2024-03-06T14:46:12;11.10;74.80
48579;DHT22;34357;51.948;6.132;2024-03-06T14:48:38;10.90;75.10
48579;DHT22;34357;51.948;6.132;2024-03-06T14:51:06;10.90;75.00
48579;DHT22;34357;51.948;6.132;2024-03-06T14:53:32;10.90;74.90
48579;DHT22;34357;51.948;6.132;2024-03-06T14:55:57;10.90;74.30
48579;DHT22;34357;51.948;6.132;2024-03-06T14:58:23;10.90;73.80
48579;DHT22;34357;51.948;6.132;2024-03-06T15:00:50;11.10;73.80
48579;DHT22;34357;51.948;6.132;2024-03-06T15:03:19;11.20;74.10
48579;DHT22;34357;51.948;6.132;2024-03-06T15:05:45;11.30;74.20
48579;DHT22;34357;51.948;6.132;2024-03-06T15:08:11;11.40;75.20
48579;DHT22;34357;51.948;6.132;2024-03-06T15:10:37;11.60;74.20
48579;DHT22;34357;51.948;6.132;2024-03-06T15:13:03;11.80;73.80
48579;DHT22;34357;51.948;6.132;2024-03-06T15:15:30;11.90;72.80
48579;DHT22;34357;51.948;6.132;2024-03-06T15:17:57;11.90;72.70
48579;DHT22;34357;51.948;6.132;2024-03-06T15:20:22;11.80;71.90
48579;DHT22;34357;51.948;6.132;2024-03-06T15:22:48;11.80;72.70
48579;DHT22;34357;51.948;6.132;2024-03-06T15:25:14;11.70;72.80
48579;DHT22;34357;51.948;6.132;2024-03-06T15:27:40;11.60;72.20
48579;DHT22;34357;51.948;6.132;2024-03-06T15:30:08;11.60;73.20
48579;DHT22;34357;51.948;6.132;2024-03-06T15:32:38;11.60;72.30
48579;DHT22;34357;51.948;6.132;2024-03-06T15:35:04;11.40;72.90
48579;DHT22;34357;51.948;6.132;2024-03-06T15:37:30;11.40;72.50
48579;DHT22;34357;51.948;6.132;2024-03-06T15:39:56;11.40;72.60
48579;DHT22;34357;51.948;6.132;2024-03-06T15:42:23;11.30;72.10
48579;DHT22;34357;51.948;6.132;2024-03-06T15:44:50;11.10;72.20
48579;DHT22;34357;51.948;6.132;2024-03-06T15:47:19;11.10;72.50
48579;DHT22;34357;51.948;6.132;2024-03-06T15:49:45;11.10;72.80
48579;DHT22;34357;51.948;6.132;2024-03-06T15:52:12;10.90;73.00
48579;DHT22;34357;51.948;6.132;2024-03-06T15:54:39;10.90;72.40